createdAt,value
2019-06-20T00:00:46.927Z,23.50
2019-06-20T00:03:15.494Z,23.40
2019-06-20T00:05:44.026Z,23.30
2019-06-20T00:08:12.593Z,23.30
2019-06-20T00:10:41.366Z,23.20
2019-06-20T00:13:09.924Z,23.10
2019-06-20T00:15:39.023Z,23.10
2019-06-20T00:18:07.570Z,23.10
2019-06-20T00:20:36.179Z,23.00
2019-06-20T00:23:04.715Z,23.00
2019-06-20T00:25:33.254Z,22.90
2019-06-20T00:28:01.792Z,22.90
2019-06-20T00:30:30.802Z,22.80
2019-06-20T00:32:59.668Z,22.70
2019-06-20T00:35:28.830Z,22.60
2019-06-20T00:37:57.357Z,22.50
2019-06-20T00:40:25.896Z,22.40
2019-06-20T00:42:54.780Z,22.20
2019-06-20T00:45:23.317Z,22.10
2019-06-20T00:47:51.878Z,21.80
2019-06-20T00:50:20.415Z,21.50
2019-06-20T00:52:48.962Z,21.40
2019-06-20T00:55:17.511Z,21.30
2019-06-20T00:57:46.036Z,21.30
2019-06-20T01:00:14.586Z,21.10
2019-06-20T01:02:43.652Z,21.00
2019-06-20T01:05:12.195Z,21.00
2019-06-20T01:07:40.734Z,21.00
2019-06-20T01:10:09.311Z,21.00
2019-06-20T01:12:37.843Z,21.00
2019-06-20T01:15:07.319Z,21.00
2019-06-20T01:17:36.186Z,21.00
2019-06-20T01:20:05.798Z,21.00
2019-06-20T01:22:34.894Z,21.00
2019-06-20T01:25:03.414Z,20.90
2019-06-20T01:27:31.939Z,20.90
2019-06-20T01:30:00.723Z,20.80
2019-06-20T01:32:29.238Z,20.80
2019-06-20T01:34:57.767Z,20.80
2019-06-20T01:37:26.807Z,20.80
2019-06-20T01:39:55.323Z,20.70
2019-06-20T01:42:23.831Z,20.70
2019-06-20T01:44:53.005Z,20.60
2019-06-20T01:47:21.527Z,20.60
2019-06-20T01:49:50.343Z,20.50
2019-06-20T01:52:18.852Z,20.50
2019-06-20T01:54:47.355Z,20.50
2019-06-20T01:57:16.198Z,20.50
2019-06-20T01:59:44.946Z,20.50
2019-06-20T02:02:13.815Z,20.30
2019-06-20T02:04:42.562Z,20.30
2019-06-20T02:07:11.663Z,20.20
2019-06-20T02:09:40.387Z,20.10
2019-06-20T02:12:09.255Z,20.00
2019-06-20T02:14:37.763Z,20.00
2019-06-20T02:17:06.815Z,19.90
2019-06-20T02:19:35.674Z,19.90
2019-06-20T02:22:04.725Z,19.90
2019-06-20T02:24:33.243Z,19.90
2019-06-20T02:27:01.767Z,19.80
2019-06-20T02:29:30.618Z,19.90
2019-06-20T02:31:59.138Z,19.80
2019-06-20T02:34:27.928Z,19.80
2019-06-20T02:36:56.447Z,19.80
2019-06-20T02:39:25.226Z,19.80
2019-06-20T02:41:53.847Z,19.80
2019-06-20T02:44:29.847Z,19.70
2019-06-20T02:46:52.906Z,19.80
2019-06-20T02:49:21.987Z,19.70
2019-06-20T02:51:51.006Z,19.70
2019-06-20T02:54:19.507Z,19.70
2019-06-20T02:56:48.011Z,19.70
2019-06-20T02:59:16.526Z,19.70
2019-06-20T03:01:45.289Z,19.60
2019-06-20T03:04:13.935Z,19.60
2019-06-20T03:06:42.574Z,19.40
2019-06-20T03:09:11.086Z,19.30
2019-06-20T03:11:39.955Z,19.30
2019-06-20T03:14:08.754Z,19.30
2019-06-20T03:16:37.260Z,19.20
2019-06-20T03:19:06.062Z,19.20
2019-06-20T03:21:34.587Z,19.20
2019-06-20T03:24:03.102Z,19.10
2019-06-20T03:26:31.869Z,19.00
2019-06-20T03:29:00.644Z,19.00
2019-06-20T03:31:29.655Z,18.90
2019-06-20T03:33:58.235Z,18.90
2019-06-20T03:36:26.738Z,18.90
2019-06-20T03:38:55.261Z,18.90
2019-06-20T03:41:23.783Z,18.90
2019-06-20T03:43:52.562Z,18.90
2019-06-20T03:46:21.090Z,18.70
2019-06-20T03:48:49.611Z,18.70
2019-06-20T03:51:18.109Z,18.70
2019-06-20T03:53:46.903Z,18.60
2019-06-20T03:56:17.090Z,18.60
2019-06-20T03:58:45.890Z,18.60
2019-06-20T04:01:14.711Z,18.50
2019-06-20T04:03:43.798Z,18.40
2019-06-20T04:06:12.648Z,18.40
2019-06-20T04:08:41.692Z,18.40
2019-06-20T04:11:10.267Z,18.40
2019-06-20T04:13:38.811Z,18.40
2019-06-20T04:16:08.842Z,18.40
2019-06-20T04:18:37.578Z,18.40
2019-06-20T04:21:06.114Z,18.50
2019-06-20T04:23:34.749Z,18.50
2019-06-20T04:26:03.553Z,18.40
2019-06-20T04:28:32.094Z,18.50
2019-06-20T04:31:00.900Z,18.50
2019-06-20T04:33:29.778Z,18.50
2019-06-20T04:35:58.611Z,18.50
2019-06-20T04:38:28.079Z,18.60
2019-06-20T04:40:57.175Z,18.50
2019-06-20T04:43:26.069Z,18.60
2019-06-20T04:46:16.501Z,18.50
2019-06-20T04:48:45.099Z,18.60
2019-06-20T04:51:13.906Z,18.60
2019-06-20T04:53:43.039Z,18.60
2019-06-20T04:56:11.632Z,18.60
2019-06-20T04:58:40.549Z,18.60
2019-06-20T05:01:09.046Z,18.60
2019-06-20T05:03:37.905Z,18.70
2019-06-20T05:06:07.380Z,18.70
2019-06-20T05:08:36.484Z,18.80
2019-06-20T05:11:05.287Z,18.90
2019-06-20T05:13:34.369Z,18.90
2019-06-20T05:16:03.183Z,18.90
2019-06-20T05:18:32.326Z,19.00
2019-06-20T05:21:01.109Z,19.00
2019-06-20T05:23:29.862Z,19.10
2019-06-20T05:25:58.891Z,19.20
2019-06-20T05:28:28.098Z,19.30
2019-06-20T05:30:56.656Z,19.30
2019-06-20T05:33:25.495Z,19.40
2019-06-20T05:35:54.297Z,19.50
2019-06-20T05:38:22.861Z,19.50
2019-06-20T05:40:51.411Z,19.60
2019-06-20T05:43:20.380Z,19.50
2019-06-20T05:45:49.711Z,19.60
2019-06-20T05:48:18.558Z,19.60
2019-06-20T05:50:47.087Z,19.60
2019-06-20T05:53:15.693Z,19.60
2019-06-20T05:55:44.246Z,19.70
2019-06-20T05:58:13.258Z,19.70
2019-06-20T06:00:41.860Z,19.80
2019-06-20T06:03:13.576Z,19.80
2019-06-20T06:05:41.491Z,19.80
2019-06-20T06:08:10.028Z,19.90
2019-06-20T06:10:38.775Z,19.90
2019-06-20T06:13:07.351Z,19.90
2019-06-20T06:15:35.998Z,20.00
2019-06-20T06:18:05.199Z,20.00
2019-06-20T06:20:34.325Z,20.10
2019-06-20T06:23:03.501Z,20.20
2019-06-20T06:25:32.385Z,20.30
2019-06-20T06:28:01.602Z,20.40
2019-06-20T06:30:30.517Z,20.50
2019-06-20T06:32:59.599Z,20.60
2019-06-20T06:35:28.213Z,20.60
2019-06-20T06:37:56.822Z,20.70
2019-06-20T06:40:25.422Z,20.80
2019-06-20T06:42:54.374Z,20.80
2019-06-20T06:45:22.996Z,20.90
2019-06-20T06:47:52.023Z,20.90
2019-06-20T06:50:20.980Z,20.90
2019-06-20T06:52:49.565Z,21.00
2019-06-20T06:55:18.192Z,21.00
2019-06-20T06:57:46.724Z,21.00
2019-06-20T07:00:15.358Z,21.10
2019-06-20T07:02:44.208Z,21.10
2019-06-20T07:05:13.034Z,21.10
2019-06-20T07:07:41.595Z,21.10
2019-06-20T07:10:10.545Z,21.10
2019-06-20T07:12:39.182Z,21.10
2019-06-20T07:15:07.747Z,21.00
2019-06-20T07:17:37.048Z,21.00
2019-06-20T07:20:06.587Z,21.00
2019-06-20T07:22:35.159Z,21.00
2019-06-20T07:25:04.372Z,21.00
2019-06-20T07:27:33.234Z,20.90
2019-06-20T07:30:01.748Z,20.90
2019-06-20T07:32:30.862Z,20.90
2019-06-20T07:35:00.207Z,20.90
2019-06-20T07:37:29.084Z,20.90
2019-06-20T07:39:57.861Z,20.90
2019-06-20T07:42:26.601Z,20.90
2019-06-20T07:44:55.428Z,21.00
2019-06-20T07:47:23.960Z,21.00
2019-06-20T07:49:52.462Z,21.10
2019-06-20T07:52:21.556Z,21.10
2019-06-20T07:54:50.376Z,21.20
2019-06-20T07:57:19.245Z,21.30
2019-06-20T07:59:48.058Z,21.40
2019-06-20T08:02:16.854Z,21.50
2019-06-20T08:04:46.235Z,21.60
2019-06-20T08:07:15.280Z,21.70
2019-06-20T08:09:45.046Z,21.80
2019-06-20T08:12:14.118Z,21.90
2019-06-20T08:14:43.215Z,22.00
2019-06-20T08:17:12.009Z,22.00
2019-06-20T08:19:40.516Z,22.10
2019-06-20T08:22:09.310Z,22.10
2019-06-20T08:24:37.820Z,22.20
2019-06-20T08:27:06.762Z,22.20
2019-06-20T08:29:35.341Z,22.30
2019-06-20T08:32:04.503Z,22.40
2019-06-20T08:34:33.146Z,22.40
2019-06-20T08:37:02.446Z,22.50
2019-06-20T08:39:31.035Z,22.50
2019-06-20T08:42:00.485Z,22.70
2019-06-20T08:44:29.147Z,22.80
2019-06-20T08:46:59.276Z,22.90
2019-06-20T08:49:27.899Z,22.90
2019-06-20T08:51:57.347Z,23.10
2019-06-20T08:54:26.302Z,23.10
2019-06-20T08:56:57.057Z,23.40
2019-06-20T08:59:25.351Z,23.50
2019-06-20T09:01:57.982Z,23.60
2019-06-20T09:04:25.089Z,23.70
2019-06-20T09:06:55.271Z,23.60
2019-06-20T09:09:23.856Z,23.70
2019-06-20T09:11:52.370Z,23.70
2019-06-20T09:14:20.892Z,23.80
2019-06-20T09:16:49.704Z,24.10
2019-06-20T09:19:18.217Z,24.30
2019-06-20T09:21:46.726Z,24.40
2019-06-20T09:24:15.635Z,24.40
2019-06-20T09:26:45.326Z,24.40
2019-06-20T09:29:14.122Z,24.40
2019-06-20T09:31:42.627Z,24.30
2019-06-20T09:34:11.134Z,24.20
2019-06-20T09:36:39.642Z,24.30
2019-06-20T09:39:08.159Z,24.40
2019-06-20T09:41:36.967Z,24.50
2019-06-20T09:44:05.491Z,24.50
2019-06-20T09:46:34.007Z,24.50
2019-06-20T09:49:02.757Z,24.50
2019-06-20T09:51:31.302Z,24.50
2019-06-20T09:53:59.827Z,24.50
2019-06-20T09:56:29.179Z,24.50
2019-06-20T09:58:58.345Z,24.70
2019-06-20T10:01:27.176Z,25.00
2019-06-20T10:03:56.799Z,25.10
2019-06-20T10:06:25.444Z,25.20
2019-06-20T10:08:54.360Z,25.20
2019-06-20T10:11:22.947Z,25.20
2019-06-20T10:13:52.242Z,25.50
2019-06-20T10:16:21.079Z,25.80
2019-06-20T10:18:50.126Z,26.20
2019-06-20T10:21:18.790Z,26.40
2019-06-20T10:23:47.733Z,26.50
2019-06-20T10:26:16.346Z,26.60
2019-06-20T10:28:46.396Z,26.40
2019-06-20T10:31:15.607Z,26.40
2019-06-20T10:33:45.765Z,26.30
2019-06-20T10:36:14.639Z,26.30
2019-06-20T10:38:44.893Z,26.20
2019-06-20T10:41:14.346Z,26.20
2019-06-20T10:43:44.176Z,26.20
2019-06-20T10:46:13.558Z,26.20
2019-06-20T10:48:43.995Z,26.20
2019-06-20T10:51:31.285Z,26.10
2019-06-20T10:53:59.798Z,26.20
2019-06-20T10:56:29.198Z,26.40
2019-06-20T10:58:57.985Z,26.60
2019-06-20T11:01:26.782Z,26.60
2019-06-20T11:03:55.284Z,26.90
2019-06-20T11:06:24.116Z,27.50
2019-06-20T11:08:53.259Z,28.00
2019-06-20T11:11:22.075Z,28.50
2019-06-20T11:13:50.816Z,28.70
2019-06-20T11:16:19.620Z,28.50
2019-06-20T11:18:48.778Z,28.30
2019-06-20T11:21:17.708Z,28.50
2019-06-20T11:23:47.359Z,28.20
2019-06-20T11:26:16.276Z,27.90
2019-06-20T11:28:45.050Z,27.70
2019-06-20T11:31:13.879Z,27.40
2019-06-20T11:33:44.078Z,27.30
2019-06-20T11:36:12.702Z,27.00
2019-06-20T11:38:42.523Z,26.70
2019-06-20T11:41:11.271Z,26.60
2019-06-20T11:43:40.047Z,26.80
2019-06-20T11:46:08.583Z,26.90
2019-06-20T11:48:38.467Z,26.80
2019-06-20T11:51:07.662Z,26.70
2019-06-20T11:53:36.542Z,26.70
2019-06-20T11:56:05.623Z,26.60
2019-06-20T11:58:34.738Z,26.60
2019-06-20T12:01:04.239Z,26.90
2019-06-20T12:03:33.150Z,27.10
2019-06-20T12:06:02.751Z,27.00
2019-06-20T12:08:31.543Z,26.80
2019-06-20T12:11:00.048Z,26.70
2019-06-20T12:13:28.923Z,26.70
2019-06-20T12:15:57.758Z,27.20
2019-06-20T12:18:26.903Z,28.10
2019-06-20T12:20:55.439Z,28.30
2019-06-20T12:23:24.295Z,28.50
2019-06-20T12:25:52.795Z,28.70
2019-06-20T12:28:21.322Z,28.70
2019-06-20T12:30:50.456Z,28.40
2019-06-20T12:33:19.750Z,28.30
2019-06-20T12:35:48.943Z,28.20
2019-06-20T12:38:17.460Z,28.10
2019-06-20T12:40:46.262Z,28.10
2019-06-20T12:43:14.969Z,28.00
2019-06-20T12:45:43.777Z,27.90
2019-06-20T12:48:12.366Z,27.50
2019-06-20T12:50:41.505Z,27.30
2019-06-20T12:53:11.352Z,27.20
2019-06-20T12:55:40.361Z,26.90
2019-06-20T12:58:09.278Z,26.90
2019-06-20T13:00:39.596Z,27.00
2019-06-20T13:03:08.631Z,27.10
2019-06-20T13:05:38.459Z,27.30
2019-06-20T13:08:07.696Z,28.00
2019-06-20T13:10:38.634Z,28.80
2019-06-20T13:13:06.473Z,29.40
2019-06-20T13:15:35.425Z,30.00
2019-06-20T13:18:03.968Z,30.40
2019-06-20T13:20:32.879Z,30.60
2019-06-20T13:23:01.730Z,30.20
2019-06-20T13:25:30.250Z,29.90
2019-06-20T13:27:59.105Z,29.50
2019-06-20T13:30:27.715Z,28.90
2019-06-20T13:32:56.814Z,28.40
2019-06-20T13:35:25.331Z,28.10
2019-06-20T13:37:53.838Z,28.10
2019-06-20T13:40:22.891Z,28.50
2019-06-20T13:42:54.445Z,28.70
2019-06-20T13:45:22.788Z,28.80
2019-06-20T13:47:51.296Z,28.80
2019-06-20T13:50:19.916Z,28.70
2019-06-20T13:52:49.611Z,28.50
2019-06-20T13:55:18.670Z,28.30
2019-06-20T13:57:47.491Z,28.30
2019-06-20T14:00:19.010Z,28.50
2019-06-20T14:02:48.963Z,28.50
2019-06-20T14:05:18.170Z,28.70
2019-06-20T14:07:48.420Z,29.10
2019-06-20T14:10:18.352Z,29.10
2019-06-20T14:12:46.966Z,28.70
2019-06-20T14:15:16.155Z,28.50
2019-06-20T14:17:45.351Z,28.20
2019-06-20T14:20:14.002Z,28.10
2019-06-20T14:22:42.971Z,28.00
2019-06-20T14:25:11.515Z,27.80
2019-06-20T14:27:40.306Z,27.70
2019-06-20T14:30:09.480Z,27.80
2019-06-20T14:32:38.597Z,27.80
2019-06-20T14:35:07.148Z,27.70
2019-06-20T14:37:36.038Z,27.70
2019-06-20T14:40:05.586Z,27.60
2019-06-20T14:42:34.675Z,27.50
2019-06-20T14:45:03.504Z,27.40
2019-06-20T14:47:32.350Z,27.20
2019-06-20T14:50:00.866Z,27.00
2019-06-20T14:52:29.486Z,26.80
2019-06-20T14:54:58.054Z,26.60
2019-06-20T14:57:27.303Z,26.30
2019-06-20T14:59:56.167Z,26.20
2019-06-20T15:02:37.486Z,26.30
2019-06-20T15:04:56.441Z,26.40
2019-06-20T15:07:25.663Z,26.40
2019-06-20T15:09:55.247Z,26.40
2019-06-20T15:12:24.847Z,26.40
2019-06-20T15:14:55.273Z,26.70
2019-06-20T15:17:24.026Z,27.10
2019-06-20T15:19:54.284Z,27.30
2019-06-20T15:22:22.975Z,27.50
2019-06-20T15:24:53.612Z,27.70
2019-06-20T15:27:22.350Z,27.70
2019-06-20T15:29:52.219Z,27.80
2019-06-20T15:32:20.982Z,27.90
2019-06-20T15:34:49.490Z,28.20
2019-06-20T15:37:18.706Z,28.80
2019-06-20T15:39:48.518Z,29.00
2019-06-20T15:42:22.304Z,29.00
2019-06-20T15:44:50.154Z,28.80
2019-06-20T15:47:20.602Z,28.40
2019-06-20T15:49:49.110Z,28.10
2019-06-20T15:52:18.193Z,27.90
2019-06-20T15:54:47.489Z,27.70
2019-06-20T15:57:16.350Z,27.50
2019-06-20T15:59:44.878Z,27.30
2019-06-20T16:02:13.399Z,27.20
2019-06-20T16:04:42.587Z,27.10
2019-06-20T16:07:11.830Z,27.40
2019-06-20T16:09:40.331Z,27.50
2019-06-20T16:12:09.515Z,27.30
2019-06-20T16:14:38.021Z,27.10
2019-06-20T16:17:06.803Z,26.90
2019-06-20T16:19:35.558Z,26.70
2019-06-20T16:22:04.059Z,26.50
2019-06-20T16:24:32.608Z,26.30
2019-06-20T16:27:01.401Z,26.20
2019-06-20T16:29:29.971Z,26.00
2019-06-20T16:31:58.529Z,25.80
2019-06-20T16:34:27.343Z,25.60
2019-06-20T16:37:09.175Z,25.50
2019-06-20T16:39:27.163Z,25.50
2019-06-20T16:41:55.991Z,25.40
2019-06-20T16:44:25.082Z,25.30
2019-06-20T16:46:53.586Z,25.30
2019-06-20T16:49:22.659Z,25.40
2019-06-20T16:51:51.765Z,25.40
2019-06-20T16:54:20.279Z,25.30
2019-06-20T16:56:49.822Z,25.10
2019-06-20T16:59:18.947Z,24.70
2019-06-20T17:01:47.706Z,24.50
2019-06-20T17:04:16.525Z,24.50
2019-06-20T17:06:45.041Z,24.60
2019-06-20T17:09:13.547Z,24.70
2019-06-20T17:11:42.191Z,24.80
2019-06-20T17:14:10.999Z,24.80
2019-06-20T17:16:39.515Z,24.70
2019-06-20T17:19:08.813Z,24.70
2019-06-20T17:21:37.998Z,24.50
2019-06-20T17:24:06.517Z,24.30
2019-06-20T17:26:35.031Z,24.20
2019-06-20T17:29:03.900Z,24.10
2019-06-20T17:31:32.490Z,24.10
2019-06-20T17:34:01.012Z,24.00
2019-06-20T17:36:29.519Z,24.10
2019-06-20T17:38:58.033Z,24.10
2019-06-20T17:41:27.015Z,24.10
2019-06-20T17:43:55.535Z,24.10
2019-06-20T17:46:24.707Z,24.10
2019-06-20T17:48:53.264Z,24.20
2019-06-20T17:51:21.830Z,24.30
2019-06-20T17:53:51.126Z,24.30
2019-06-20T17:56:20.738Z,24.30
2019-06-20T17:58:49.311Z,24.30
2019-06-20T18:01:17.921Z,24.20
2019-06-20T18:03:46.858Z,24.20
2019-06-20T18:06:15.850Z,24.10
2019-06-20T18:08:44.688Z,24.00
2019-06-20T18:11:13.939Z,24.00
2019-06-20T18:13:42.464Z,24.10
2019-06-20T18:16:24.145Z,24.10
2019-06-20T18:18:41.751Z,24.10
2019-06-20T18:21:10.378Z,24.00
2019-06-20T18:23:39.182Z,23.90
2019-06-20T18:26:07.980Z,23.90
2019-06-20T18:28:36.774Z,23.80
2019-06-20T18:31:05.327Z,23.70
2019-06-20T18:33:34.136Z,23.60
2019-06-20T18:36:02.934Z,23.60
2019-06-20T18:38:31.729Z,23.60
2019-06-20T18:41:00.546Z,23.60
2019-06-20T18:43:29.147Z,23.60
2019-06-20T18:45:58.118Z,23.60
2019-06-20T18:48:26.796Z,23.60
2019-06-20T18:50:55.319Z,23.50
2019-06-20T18:53:24.136Z,23.60
2019-06-20T18:55:53.261Z,23.60
2019-06-20T18:58:22.141Z,23.50
2019-06-20T19:00:50.970Z,23.40
2019-06-20T19:03:21.424Z,23.30
2019-06-20T19:05:50.202Z,23.30
2019-06-20T19:08:19.336Z,23.20
2019-06-20T19:10:49.590Z,23.10
2019-06-20T19:13:18.852Z,23.00
2019-06-20T19:15:48.154Z,22.90
2019-06-20T19:18:16.688Z,22.80
2019-06-20T19:20:45.298Z,22.70
2019-06-20T19:23:14.766Z,22.60
2019-06-20T19:25:43.738Z,22.60
2019-06-20T19:28:13.025Z,22.40
2019-06-20T19:30:46.689Z,22.30
2019-06-20T19:33:15.322Z,22.30
2019-06-20T19:35:44.407Z,22.20
2019-06-20T19:38:13.193Z,22.10
2019-06-20T19:40:45.604Z,22.00
2019-06-20T19:43:14.674Z,22.00
2019-06-20T19:45:43.554Z,21.90
2019-06-20T19:48:12.334Z,21.90
2019-06-20T19:50:41.229Z,21.90
2019-06-20T19:53:10.351Z,21.80
2019-06-20T19:55:39.047Z,21.70
2019-06-20T19:58:07.663Z,21.60
2019-06-20T20:00:36.775Z,21.60
2019-06-20T20:03:05.799Z,21.60
2019-06-20T20:05:34.327Z,21.60
2019-06-20T20:08:03.512Z,21.60
2019-06-20T20:10:51.475Z,21.60
2019-06-20T20:13:20.057Z,21.70
2019-06-20T20:15:49.327Z,21.60
2019-06-20T20:18:18.286Z,21.60
2019-06-20T20:20:47.670Z,21.60
2019-06-20T20:23:16.720Z,21.60
2019-06-20T20:25:45.351Z,21.50
2019-06-20T20:28:14.300Z,21.50
2019-06-20T20:30:42.942Z,21.40
2019-06-20T20:33:11.502Z,21.40
2019-06-20T20:35:40.063Z,21.30
2019-06-20T20:38:09.323Z,21.30
2019-06-20T20:40:38.519Z,21.20
2019-06-20T20:43:07.059Z,21.20
2019-06-20T20:45:35.839Z,21.20
2019-06-20T20:48:04.632Z,21.10
2019-06-20T20:50:33.211Z,21.10
2019-06-20T20:53:01.873Z,21.10
2019-06-20T20:55:30.868Z,21.00
2019-06-20T20:57:59.526Z,21.00
2019-06-20T21:00:29.911Z,20.90
2019-06-20T21:02:58.487Z,20.80
2019-06-20T21:05:27.387Z,20.80
2019-06-20T21:07:56.219Z,20.70
2019-06-20T21:10:25.840Z,20.70
2019-06-20T21:12:55.005Z,20.60
2019-06-20T21:15:23.552Z,20.60
2019-06-20T21:17:55.500Z,20.60
2019-06-20T21:20:22.788Z,20.50
2019-06-20T21:22:51.355Z,20.50
2019-06-20T21:25:20.266Z,20.40
2019-06-20T21:27:48.838Z,20.30
2019-06-20T21:30:17.754Z,20.30
2019-06-20T21:32:46.971Z,20.20
2019-06-20T21:35:15.533Z,20.10
2019-06-20T21:37:44.087Z,20.10
2019-06-20T21:40:12.683Z,20.10
2019-06-20T21:42:41.282Z,20.00
2019-06-20T21:45:09.855Z,20.00
2019-06-20T21:47:38.758Z,20.00
2019-06-20T21:50:08.591Z,19.90
2019-06-20T21:52:37.471Z,19.90
2019-06-20T21:55:06.056Z,19.90
2019-06-20T21:57:34.602Z,19.80
2019-06-20T22:00:03.242Z,19.80
2019-06-20T22:02:31.784Z,19.70
2019-06-20T22:05:00.367Z,19.70
2019-06-20T22:07:29.819Z,19.60
2019-06-20T22:09:58.598Z,19.60
2019-06-20T22:12:27.451Z,19.50
2019-06-20T22:14:56.283Z,19.50
2019-06-20T22:17:24.871Z,19.40
2019-06-20T22:19:53.408Z,19.40
2019-06-20T22:22:22.360Z,19.30
2019-06-20T22:24:51.363Z,19.30
2019-06-20T22:27:20.285Z,19.30
2019-06-20T22:29:48.886Z,19.30
2019-06-20T22:32:17.762Z,19.30
2019-06-20T22:34:46.964Z,19.30
2019-06-20T22:37:15.776Z,19.30
2019-06-20T22:39:44.365Z,19.30
2019-06-20T22:42:13.260Z,19.30
2019-06-20T22:44:42.115Z,19.20
2019-06-20T22:47:10.950Z,19.10
2019-06-20T22:49:39.475Z,19.10
2019-06-20T22:52:08.103Z,19.10
2019-06-20T22:54:36.890Z,19.10
2019-06-20T22:57:05.395Z,19.00
2019-06-20T22:59:34.019Z,19.00
2019-06-20T23:02:02.919Z,19.00
2019-06-20T23:04:31.487Z,19.00
2019-06-20T23:07:00.011Z,18.90
2019-06-20T23:09:28.873Z,18.90
2019-06-20T23:11:57.694Z,18.90
2019-06-20T23:14:26.487Z,18.90
2019-06-20T23:16:55.383Z,18.90
2019-06-20T23:19:24.300Z,18.80
2019-06-20T23:21:53.250Z,18.80
2019-06-20T23:24:22.045Z,18.80
2019-06-20T23:26:50.562Z,18.80
2019-06-20T23:29:25.572Z,18.80
2019-06-20T23:31:54.420Z,18.80
2019-06-20T23:34:22.987Z,18.80
2019-06-20T23:36:51.589Z,18.80
2019-06-20T23:39:20.326Z,18.80
2019-06-20T23:41:49.175Z,18.80
2019-06-20T23:44:17.742Z,18.80
2019-06-20T23:46:46.383Z,18.80
2019-06-20T23:49:15.160Z,18.70
2019-06-20T23:51:49.555Z,18.70
2019-06-20T23:54:18.674Z,18.70
2019-06-20T23:56:47.226Z,18.70
2019-06-20T23:59:16.131Z,18.70
